Bandon, OR (97411)

3:43 PM PDT on March 24, 2017 (GMT -0700)
s.e. bandon | | Change Station

Elev 69 ft 43.12 °N, 124.40 °W | Updated 27 seconds ago

Mostly Cloudy
Mostly Cloudy
55.5 °F
Feels Like 55.5 °F
N
3.0
Wind Variable Wind from SSE

Today
High -- | Low -- °F
--% Chance of Precip.
Yesterday
High -- | Low -- °F
Precip. -- in
Pressure 30.02 in
Visibility 8.0 miles
Clouds Scattered Clouds 1400 ft
Mostly Cloudy 2100 ft
Overcast 4800 ft
Dew Point 49 °F
Humidity 79%
Rainfall 1.09 in
Snow Depth Not available.
7:13 AM 7:35 PM
Waning Crescent, 12% visible
METAR KOTH 242235Z 20010G16KT 8SM SCT014 BKN021 OVC048 11/09 A3002 RMK AO1 P0004
Pressure 30.02 in
Visibility 8.0 miles
Clouds Scattered Clouds 1400 ft
Mostly Cloudy 2100 ft
Overcast 4800 ft
Dew Point 49 °F
Humidity 79%
Rainfall 1.09 in
Snow Depth Not available.
7:13 AM 7:35 PM
Waning Crescent, 12% visible
METAR KOTH 242235Z 20010G16KT 8SM SCT014 BKN021 OVC048 11/09 A3002 RMK AO1 P0004

Get Severe Weather Alerts

Thanks for signing up!

Be on the lookout for a verification email in your inbox.

You'll start receiving the daily forecast at 8 AM.

×

10-Day Weather Forecast

Almanac

Astronomy

Mar. 24, 2017 Rise Set
Actual Time
Civil Twilight
Nautical Twilight
Astronomical Twilight
Moon
Length of Visible Light
Length of Day
Tomorrow will be .
, % of the Moon is Illuminated

Today's Extremes

State Highs State Lows

Community

WunderPhotos

Upload Photos

1,962,540 photos uploaded!

WunderBlog® & News

Nearby

Air Quality

  Air Quality AQ Index Pollutant
Not available.

Snow Depth

Station Depth Elevation

Earthquake Activity

City Distance Mag. Time & Date
Minimum magnitude displayed is 2.5.

Earthquake Activity

City Distance Mag. Time & Date
Minimum magnitude displayed is 2.5.

Coastal Water Temperatures

Place Temperature

Stations

Nearby Weather Stations

Station Location Temp. Windchill Dew Point Humidity Wind Precip. Elev Updated Type
                   

Watches & Warnings

There are currently no watches in effect.